CCGS Sir Wilfrid Laurier — CGJK — position and weather

sailwx.info

Track history (hours):
 
Tides and Currents Weather Stations Pressure Air Temp Water Temp Dewpoint Dewpoint Depression Visibility Wind Speed Wind Dir Waves Ship Positions

Oceanographic research ship CCGS Sir Wilfrid Laurier (Canada)

Detailed information on ship capabilities available from ARCUS's ALIAS (Arctic Logistics Information and Support) project.

Last reported at 2019-Jun-16 05:00 UTC. Time now 2019-Jun-16 05:28 UTC.
Position N 51°27' W 128°28'.

Length 83 m; beam 16.2 m; draft 6 m.

Type: SAR. MMSI: 316052000.

Date/timePositionNaut miles runAvg speedWind from/ knotsBaromVisibWave heightAir tempDewpointWater temp
2019-Jun-16 05:00N 51°27' W 128°28'5 9.6
2019-Jun-16 04:31N 51°32' W 128°30'5 9.5
2019-Jun-16 04:00N 51°36' W 128°31'5 9.6
2019-Jun-16 03:30N 51°41' W 128°32'5 9.9
2019-Jun-16 03:00N 51°46' W 128°34'5 9.9
2019-Jun-16 02:31N 51°51' W 128°35'5 9.7
2019-Jun-16 02:00N 51°55' W 128°38'5 9.8
2019-Jun-16 01:31N 52°00' W 128°39'5 9.8
2019-Jun-16 01:00N 52°05' W 128°42'510.2
2019-Jun-16 00:31N 52°10' W 128°44'510.3
2019-Jun-16 00:00N 52°15' W 128°46'610.7
2019-Jun-15 23:29N 52°20' W 128°49'510.2
2019-Jun-15 22:57N 52°25' W 128°51'510.2
2019-Jun-15 22:26N 52°31' W 128°52'4 8.7
2019-Jun-15 21:58N 52°35' W 128°53'1 2.0
2019-Jun-15 21:29N 52°34' W 128°54'1 1.6
2019-Jun-15 20:48N 52°34' W 128°53'0 0.5
2019-Jun-15 19:49N 52°35' W 128°52'3 2.1
2019-Jun-15 18:23N 52°32' W 128°52'2 1.3
2019-Jun-15 17:10N 52°30' W 128°52'1 3.8
2019-Jun-15 17:00N 52°31' W 128°53'1 0.8
2019-Jun-15 15:59N 52°31' W 128°53'0 0.2
2019-Jun-15 15:27N 52°31' W 128°53'3 6.4
2019-Jun-15 14:56N 52°34' W 128°50'3 6.8
2019-Jun-15 14:30N 52°32' W 128°47'0 0.1
2019-Jun-15 13:29N 52°32' W 128°47'0 0.0
2019-Jun-15 11:35N 52°32' W 128°47'0 0.1
2019-Jun-15 11:29N 52°32' W 128°47'0 0.0
2019-Jun-15 10:59N 52°32' W 128°47'0 0.1
2019-Jun-15 10:23N 52°32' W 128°47'0 0.0
2019-Jun-15 07:59N 52°32' W 128°47'0 0.0
2019-Jun-15 07:05N 52°32' W 128°47'0 0.0
2019-Jun-15 06:35N 52°32' W 128°47'0 0.0
2019-Jun-15 06:05N 52°32' W 128°47'0 0.0
2019-Jun-15 05:56N 52°32' W 128°47'0 0.1
2019-Jun-15 05:20N 52°32' W 128°47'0 0.1
2019-Jun-15 04:47N 52°32' W 128°47'0 0.1
2019-Jun-15 04:29N 52°32' W 128°47'0 0.0
2019-Jun-15 03:59N 52°32' W 128°47'0 0.1
2019-Jun-15 03:29N 52°32' W 128°47'0 0.1
2019-Jun-15 02:59N 52°32' W 128°47'0 0.0
2019-Jun-15 02:29N 52°32' W 128°47'0 0.1
2019-Jun-15 01:53N 52°32' W 128°47'0 0.0
2019-Jun-15 01:29N 52°32' W 128°47'0 0.1
2019-Jun-15 00:53N 52°32' W 128°47'0 0.0
2019-Jun-15 00:17N 52°32' W 128°47'0 0.0
2019-Jun-14 23:47N 52°32' W 128°47'2 1.3
2019-Jun-14 22:20N 52°34' W 128°48'2 5.6
2019-Jun-14 21:58N 52°34' W 128°52'4 9.3
2019-Jun-14 21:30N 52°30' W 128°51'4 8.7
2019-Jun-14 21:00N 52°25' W 128°50'4 8.8
2019-Jun-14 20:30N 52°21' W 128°49'2 4.3
2019-Jun-14 20:00N 52°19' W 128°48'2 3.5
2019-Jun-14 19:29N 52°17' W 128°47'4 8.8
2019-Jun-14 19:00N 52°14' W 128°44'5 9.5
2019-Jun-14 18:30N 52°16' W 128°37'510.2
2019-Jun-14 18:00N 52°21' W 128°34'510.2
2019-Jun-14 17:29N 52°25' W 128°29'4 9.2
2019-Jun-14 17:00N 52°29' W 128°27'510.2
2019-Jun-14 16:30N 52°34' W 128°28'4 8.1
2019-Jun-14 16:00N 52°38' W 128°31'1 0.9
2019-Jun-14 15:08N 52°39' W 128°32'0 1.0
2019-Jun-14 15:00N 52°38' W 128°32'2 4.0
2019-Jun-14 14:25N 52°41' W 128°33'76 9.1
2019-Jun-14 06:01N 53°42' W 129°48'213.3
2019-Jun-14 05:50N 53°44' W 129°51'413.4
2019-Jun-14 05:30N 53°47' W 129°56'713.3
2019-Jun-14 05:00N 53°52' W 130°03'612.1
2019-Jun-14 04:30N 53°56' W 130°12'612.2
2019-Jun-14 04:01N 54°01' W 130°14'611.9
2019-Jun-14 03:30N 54°06' W 130°21'611.5
2019-Jun-14 03:00N 54°12' W 130°21'611.1
2019-Jun-14 02:30N 54°17' W 130°22'3 6.3
2019-Jun-14 02:00N 54°20' W 130°19'1 2.1
2019-Jun-14 01:29N 54°20' W 130°17'0 0.0
2019-Jun-14 00:59N 54°20' W 130°17'0 0.0
2019-Jun-14 00:29N 54°20' W 130°17'0 0.0
2019-Jun-13 23:59N 54°20' W 130°17'0 0.0
2019-Jun-13 23:29N 54°20' W 130°17'0 0.0
2019-Jun-13 22:59N 54°20' W 130°17'0 0.0
2019-Jun-13 22:29N 54°20' W 130°17'0 0.0
2019-Jun-13 21:59N 54°20' W 130°17'0 0.0
2019-Jun-13 21:26N 54°20' W 130°17'0 0.0
2019-Jun-13 20:56N 54°20' W 130°17'0 0.0
2019-Jun-13 20:29N 54°20' W 130°17'0 0.0
2019-Jun-13 19:59N 54°20' W 130°17'0 0.0
2019-Jun-13 19:26N 54°20' W 130°17'0 0.0
2019-Jun-13 18:59N 54°20' W 130°17'0 0.0
2019-Jun-13 18:29N 54°20' W 130°17'0 0.0
2019-Jun-13 17:57N 54°20' W 130°17'0 0.0
2019-Jun-13 17:29N 54°20' W 130°17'0 0.0
2019-Jun-13 16:59N 54°20' W 130°17'0 0.0
2019-Jun-13 16:29N 54°20' W 130°17'0 0.0
2019-Jun-13 15:59N 54°20' W 130°17'0 0.0
2019-Jun-13 15:29N 54°20' W 130°17'0 0.0
2019-Jun-13 14:56N 54°20' W 130°17'0 0.0
2019-Jun-13 14:29N 54°20' W 130°17'0 0.0
2019-Jun-13 13:59N 54°20' W 130°17'0 0.0
2019-Jun-13 13:29N 54°20' W 130°17'0 0.0
2019-Jun-13 12:59N 54°20' W 130°17'0 0.0
2019-Jun-13 12:29N 54°20' W 130°17'0 0.0
2019-Jun-13 11:59N 54°20' W 130°17'0 0.0
2019-Jun-13 11:29N 54°20' W 130°17'0 0.0
2019-Jun-13 10:59N 54°20' W 130°17'0 0.0
2019-Jun-13 10:29N 54°20' W 130°17'0 0.0
2019-Jun-13 09:59N 54°20' W 130°17'0 0.0
2019-Jun-13 09:29N 54°20' W 130°17'0 0.0
2019-Jun-13 08:59N 54°20' W 130°17'0 0.0
2019-Jun-13 08:26N 54°20' W 130°17'0 0.0
2019-Jun-13 07:59N 54°20' W 130°17'0 0.0
2019-Jun-13 07:26N 54°20' W 130°17'0 0.0
2019-Jun-13 06:56N 54°20' W 130°17'0 0.0
2019-Jun-13 06:29N 54°20' W 130°17'0 0.0
2019-Jun-13 05:59N 54°20' W 130°17'0 0.0
2019-Jun-13 05:29N 54°20' W 130°17'0 0.0
2019-Jun-13 04:59N 54°20' W 130°17'0 0.0
2019-Jun-13 04:29N 54°20' W 130°17'0 0.0
2019-Jun-13 03:59N 54°20' W 130°17'0 0.0
2019-Jun-13 03:29N 54°20' W 130°17'0 0.0
2019-Jun-13 02:56N 54°20' W 130°17'0 0.0
2019-Jun-13 02:29N 54°20' W 130°17'0 0.0
2019-Jun-13 01:59N 54°20' W 130°17'0 0.0
2019-Jun-13 01:29N 54°20' W 130°17'0 0.0
2019-Jun-13 01:00N 54°20' W 130°17'1 1.3
2019-Jun-13 00:30N 54°20' W 130°17'0 0.2
2019-Jun-13 00:00N 54°20' W 130°17'2 3.2
2019-Jun-12 23:30N 54°19' W 130°19'3 6.3
2019-Jun-12 23:00N 54°16' W 130°22'3 6.1
2019-Jun-12 22:30N 54°13' W 130°21'3 6.7
2019-Jun-12 22:00N 54°10' W 130°22'4 7.2
2019-Jun-12 21:30N 54°08' W 130°26'4 7.6
2019-Jun-12 21:00N 54°05' W 130°31'3 6.8
2019-Jun-12 20:30N 54°03' W 130°35'3 6.6
2019-Jun-12 20:00N 54°03' W 130°40'2 4.2
2019-Jun-12 19:30N 54°03' W 130°44'3 6.9
2019-Jun-12 19:00N 53°60' W 130°46'4 7.7
2019-Jun-12 18:30N 53°56' W 130°47'4 8.3
2019-Jun-12 18:00N 53°52' W 130°48'5 8.0
2019-Jun-12 17:24N 53°49' W 130°41'1 2.4
2019-Jun-12 16:55N 53°49' W 130°39'0 0.0
2019-Jun-12 16:27N 53°49' W 130°39'1 1.8
2019-Jun-12 15:42N 53°48' W 130°41'412.8
2019-Jun-12 15:24N 53°45' W 130°38'512.7
2019-Jun-12 15:00N 53°40' W 130°34'2 2.7
2019-Jun-12 14:18N 53°39' W 130°32'0 0.0
2019-Jun-12 08:00N 53°39' W 130°32'0 0.0
2019-Jun-12 02:41N 53°39' W 130°32'1010.3
2019-Jun-12 01:43N 53°45' W 130°19'2 9.0
2019-Jun-12 01:30N 53°47' W 130°20'511.1
2019-Jun-12 01:00N 53°52' W 130°18'611.8
2019-Jun-12 00:30N 53°57' W 130°12'510.6
2019-Jun-12 00:00N 54°02' W 130°15'510.4
2019-Jun-11 23:30N 54°06' W 130°21'5 9.1
2019-Jun-11 23:00N 54°10' W 130°21'2 4.4
2019-Jun-11 22:30N 54°12' W 130°24'2 3.5
2019-Jun-11 22:01N 54°12' W 130°27'4 7.6
2019-Jun-11 21:30N 54°13' W 130°33'510.6
2019-Jun-11 21:00N 54°15' W 130°42'4 7.1
2019-Jun-11 20:30N 54°16' W 130°48'0 0.0
2019-Jun-11 20:00N 54°16' W 130°48'0 0.1
2019-Jun-11 19:30N 54°17' W 130°47'1 2.7
2019-Jun-11 19:00N 54°16' W 130°45'0 0.2
2019-Jun-11 18:30N 54°16' W 130°45'1 1.2
2019-Jun-11 18:00N 54°16' W 130°45'510.2
2019-Jun-11 17:30N 54°16' W 130°36'3 6.8
2019-Jun-11 17:01N 54°18' W 130°33'0 0.2
2019-Jun-11 16:30N 54°18' W 130°33'0 0.1
2019-Jun-11 16:00N 54°18' W 130°33'1 1.4
2019-Jun-11 15:30N 54°19' W 130°34'4 7.2
2019-Jun-11 15:00N 54°18' W 130°40'2 3.1
2019-Jun-11 14:30N 54°17' W 130°39'0 0.0
2019-Jun-11 14:00N 54°17' W 130°39'0 0.0
2019-Jun-11 13:27N 54°17' W 130°39'0 0.0
2019-Jun-11 13:00N 54°17' W 130°39'0 0.0
2019-Jun-11 12:27N 54°17' W 130°39'0 0.0
2019-Jun-11 12:00N 54°17' W 130°39'0 0.0
2019-Jun-11 11:30N 54°17' W 130°39'0 0.0
2019-Jun-11 11:00N 54°17' W 130°39'0 0.0
2019-Jun-11 10:30N 54°17' W 130°39'0 0.0
2019-Jun-11 10:00N 54°17' W 130°39'0 0.0
2019-Jun-11 09:30N 54°17' W 130°39'0 0.0
2019-Jun-11 08:57N 54°17' W 130°39'0 0.0
2019-Jun-11 08:30N 54°17' W 130°39'0 0.0
2019-Jun-11 08:00N 54°17' W 130°39'0 0.0
2019-Jun-11 07:30N 54°17' W 130°39'0 0.0
2019-Jun-11 07:00N 54°17' W 130°39'0 0.1
2019-Jun-11 06:30N 54°17' W 130°39'0 0.1
2019-Jun-11 06:00N 54°17' W 130°39'0 0.0
2019-Jun-11 05:30N 54°17' W 130°39'0 0.0
2019-Jun-11 05:00N 54°17' W 130°39'0 0.0
2019-Jun-11 04:30N 54°17' W 130°39'0 0.1
2019-Jun-11 04:00N 54°17' W 130°39'0 0.0
2019-Jun-11 03:30N 54°17' W 130°39'0 0.0
2019-Jun-11 03:00N 54°17' W 130°39'0 0.6
2019-Jun-11 02:30N 54°17' W 130°39'4 8.1
2019-Jun-11 02:00N 54°13' W 130°35'612.3
2019-Jun-11 01:30N 54°13' W 130°24'3 6.4
2019-Jun-11 01:00N 54°16' W 130°22'3 5.5
2019-Jun-11 00:30N 54°19' W 130°21'3 5.0
2019-Jun-11 00:00N 54°20' W 130°17'0 0.0
2019-Jun-10 23:30N 54°20' W 130°17'0 0.1
2019-Jun-10 23:00N 54°20' W 130°17'1 1.1
2019-Jun-10 22:28N 54°20' W 130°17'0 0.0
2019-Jun-10 21:58N 54°20' W 130°17'0 0.0
2019-Jun-10 21:25N 54°20' W 130°17'0 0.0
2019-Jun-10 20:58N 54°20' W 130°17'0 0.0
2019-Jun-10 20:25N 54°20' W 130°17'0 0.0
2019-Jun-10 19:55N 54°20' W 130°17'0 0.0
2019-Jun-10 19:28N 54°20' W 130°17'0 0.0
2019-Jun-10 18:58N 54°20' W 130°17'0 0.0
2019-Jun-10 18:22N 54°20' W 130°17'0 0.0
2019-Jun-10 17:52N 54°20' W 130°17'0 0.0
2019-Jun-10 17:28N 54°20' W 130°17'0 0.0
2019-Jun-10 16:58N 54°20' W 130°17'0 0.0
2019-Jun-10 16:28N 54°20' W 130°17'0 0.0
2019-Jun-10 15:58N 54°20' W 130°17'0 0.0
2019-Jun-10 15:28N 54°20' W 130°17'0 0.2
2019-Jun-10 15:00N 54°20' W 130°17'1 1.1
2019-Jun-10 14:28N 54°20' W 130°17'0 0.0
2019-Jun-10 13:58N 54°20' W 130°17'0 0.0
2019-Jun-10 13:28N 54°20' W 130°17'0 0.0
2019-Jun-10 12:58N 54°20' W 130°17'0 0.1
2019-Jun-10 12:25N 54°20' W 130°17'0 0.0
2019-Jun-10 11:58N 54°20' W 130°17'0 0.1
2019-Jun-10 11:28N 54°20' W 130°18'0 0.0
2019-Jun-10 10:58N 54°20' W 130°18'0 0.0
2019-Jun-10 10:28N 54°20' W 130°18'0 0.0
2019-Jun-10 09:58N 54°20' W 130°18'0 0.0
2019-Jun-10 09:28N 54°20' W 130°18'0 0.0
2019-Jun-10 08:58N 54°20' W 130°18'0 0.0
2019-Jun-10 08:28N 54°20' W 130°18'0 0.0
2019-Jun-10 07:58N 54°20' W 130°18'0 0.0
2019-Jun-10 07:28N 54°20' W 130°18'0 0.0
2019-Jun-10 06:58N 54°20' W 130°18'0 0.0
2019-Jun-10 06:28N 54°20' W 130°18'0 0.0
2019-Jun-10 05:55N 54°20' W 130°18'0 0.1
2019-Jun-10 05:28N 54°20' W 130°17'0 0.3
2019-Jun-10 05:00N 54°20' W 130°17'3 6.3
2019-Jun-10 04:30N 54°18' W 130°22'5 9.1
2019-Jun-10 04:00N 54°14' W 130°21'5 9.9
2019-Jun-10 03:30N 54°13' W 130°29'611.3
2019-Jun-10 03:00N 54°14' W 130°39'611.9
2019-Jun-10 02:30N 54°17' W 130°48'611.4
2019-Jun-10 02:00N 54°20' W 130°57'611.6
2019-Jun-10 01:30N 54°19' W 131°07'711.3
2019-Jun-10 00:50N 54°19' W 131°19'  
Track history (hours):
 
Tides and Currents Weather Stations Pressure Air Temp Water Temp Dewpoint Dewpoint Depression Visibility Wind Speed Wind Dir Waves Ship Positions

Oceanographic research ship CCGS Sir Wilfrid Laurier (Canada)

Detailed information on ship capabilities available from ARCUS's ALIAS (Arctic Logistics Information and Support) project.

Last reported at 2019-Jun-16 05:00 UTC. Time now 2019-Jun-16 05:28 UTC.
Position N 51°27' W 128°28'.

Length 83 m; beam 16.2 m; draft 6 m.

Type: SAR. MMSI: 316052000.

Date/timePositionNaut miles runAvg speedWind from/ knotsBaromVisibWave heightAir tempDewpointWater temp
2019-Jun-16 05:00N 51°27' W 128°28'5 9.6
2019-Jun-16 04:31N 51°32' W 128°30'5 9.5
2019-Jun-16 04:00N 51°36' W 128°31'5 9.6
2019-Jun-16 03:30N 51°41' W 128°32'5 9.9
2019-Jun-16 03:00N 51°46' W 128°34'5 9.9
2019-Jun-16 02:31N 51°51' W 128°35'5 9.7
2019-Jun-16 02:00N 51°55' W 128°38'5 9.8
2019-Jun-16 01:31N 52°00' W 128°39'5 9.8
2019-Jun-16 01:00N 52°05' W 128°42'510.2
2019-Jun-16 00:31N 52°10' W 128°44'510.3
2019-Jun-16 00:00N 52°15' W 128°46'610.7
2019-Jun-15 23:29N 52°20' W 128°49'510.2
2019-Jun-15 22:57N 52°25' W 128°51'510.2
2019-Jun-15 22:26N 52°31' W 128°52'4 8.7
2019-Jun-15 21:58N 52°35' W 128°53'1 2.0
2019-Jun-15 21:29N 52°34' W 128°54'1 1.6
2019-Jun-15 20:48N 52°34' W 128°53'0 0.5
2019-Jun-15 19:49N 52°35' W 128°52'3 2.1
2019-Jun-15 18:23N 52°32' W 128°52'2 1.3
2019-Jun-15 17:10N 52°30' W 128°52'1 3.8
2019-Jun-15 17:00N 52°31' W 128°53'1 0.8
2019-Jun-15 15:59N 52°31' W 128°53'0 0.2
2019-Jun-15 15:27N 52°31' W 128°53'3 6.4
2019-Jun-15 14:56N 52°34' W 128°50'3 6.8
2019-Jun-15 14:30N 52°32' W 128°47'0 0.1
2019-Jun-15 13:29N 52°32' W 128°47'0 0.0
2019-Jun-15 11:35N 52°32' W 128°47'0 0.1
2019-Jun-15 11:29N 52°32' W 128°47'0 0.0
2019-Jun-15 10:59N 52°32' W 128°47'0 0.1
2019-Jun-15 10:23N 52°32' W 128°47'0 0.0
2019-Jun-15 07:59N 52°32' W 128°47'0 0.0
2019-Jun-15 07:05N 52°32' W 128°47'0 0.0
2019-Jun-15 06:35N 52°32' W 128°47'0 0.0
2019-Jun-15 06:05N 52°32' W 128°47'0 0.0
2019-Jun-15 05:56N 52°32' W 128°47'0 0.1
2019-Jun-15 05:20N 52°32' W 128°47'0 0.1
2019-Jun-15 04:47N 52°32' W 128°47'0 0.1
2019-Jun-15 04:29N 52°32' W 128°47'0 0.0
2019-Jun-15 03:59N 52°32' W 128°47'0 0.1
2019-Jun-15 03:29N 52°32' W 128°47'0 0.1
2019-Jun-15 02:59N 52°32' W 128°47'0 0.0
2019-Jun-15 02:29N 52°32' W 128°47'0 0.1
2019-Jun-15 01:53N 52°32' W 128°47'0 0.0
2019-Jun-15 01:29N 52°32' W 128°47'0 0.1
2019-Jun-15 00:53N 52°32' W 128°47'0 0.0
2019-Jun-15 00:17N 52°32' W 128°47'0 0.0
2019-Jun-14 23:47N 52°32' W 128°47'2 1.3
2019-Jun-14 22:20N 52°34' W 128°48'2 5.6
2019-Jun-14 21:58N 52°34' W 128°52'4 9.3
2019-Jun-14 21:30N 52°30' W 128°51'4 8.7
2019-Jun-14 21:00N 52°25' W 128°50'4 8.8
2019-Jun-14 20:30N 52°21' W 128°49'2 4.3
2019-Jun-14 20:00N 52°19' W 128°48'2 3.5
2019-Jun-14 19:29N 52°17' W 128°47'4 8.8
2019-Jun-14 19:00N 52°14' W 128°44'5 9.5
2019-Jun-14 18:30N 52°16' W 128°37'510.2
2019-Jun-14 18:00N 52°21' W 128°34'510.2
2019-Jun-14 17:29N 52°25' W 128°29'4 9.2
2019-Jun-14 17:00N 52°29' W 128°27'510.2
2019-Jun-14 16:30N 52°34' W 128°28'4 8.1
2019-Jun-14 16:00N 52°38' W 128°31'1 0.9
2019-Jun-14 15:08N 52°39' W 128°32'0 1.0
2019-Jun-14 15:00N 52°38' W 128°32'2 4.0
2019-Jun-14 14:25N 52°41' W 128°33'76 9.1
2019-Jun-14 06:01N 53°42' W 129°48'213.3
2019-Jun-14 05:50N 53°44' W 129°51'413.4
2019-Jun-14 05:30N 53°47' W 129°56'713.3
2019-Jun-14 05:00N 53°52' W 130°03'612.1
2019-Jun-14 04:30N 53°56' W 130°12'612.2
2019-Jun-14 04:01N 54°01' W 130°14'611.9
2019-Jun-14 03:30N 54°06' W 130°21'611.5
2019-Jun-14 03:00N 54°12' W 130°21'611.1
2019-Jun-14 02:30N 54°17' W 130°22'3 6.3
2019-Jun-14 02:00N 54°20' W 130°19'1 2.1
2019-Jun-14 01:29N 54°20' W 130°17'0 0.0
2019-Jun-14 00:59N 54°20' W 130°17'0 0.0
2019-Jun-14 00:29N 54°20' W 130°17'0 0.0
2019-Jun-13 23:59N 54°20' W 130°17'0 0.0
2019-Jun-13 23:29N 54°20' W 130°17'0 0.0
2019-Jun-13 22:59N 54°20' W 130°17'0 0.0
2019-Jun-13 22:29N 54°20' W 130°17'0 0.0
2019-Jun-13 21:59N 54°20' W 130°17'0 0.0
2019-Jun-13 21:26N 54°20' W 130°17'0 0.0
2019-Jun-13 20:56N 54°20' W 130°17'0 0.0
2019-Jun-13 20:29N 54°20' W 130°17'0 0.0
2019-Jun-13 19:59N 54°20' W 130°17'0 0.0
2019-Jun-13 19:26N 54°20' W 130°17'0 0.0
2019-Jun-13 18:59N 54°20' W 130°17'0 0.0
2019-Jun-13 18:29N 54°20' W 130°17'0 0.0
2019-Jun-13 17:57N 54°20' W 130°17'0 0.0
2019-Jun-13 17:29N 54°20' W 130°17'0 0.0
2019-Jun-13 16:59N 54°20' W 130°17'0 0.0
2019-Jun-13 16:29N 54°20' W 130°17'0 0.0
2019-Jun-13 15:59N 54°20' W 130°17'0 0.0
2019-Jun-13 15:29N 54°20' W 130°17'0 0.0
2019-Jun-13 14:56N 54°20' W 130°17'0 0.0
2019-Jun-13 14:29N 54°20' W 130°17'0 0.0
2019-Jun-13 13:59N 54°20' W 130°17'0 0.0
2019-Jun-13 13:29N 54°20' W 130°17'0 0.0
2019-Jun-13 12:59N 54°20' W 130°17'0 0.0
2019-Jun-13 12:29N 54°20' W 130°17'0 0.0
2019-Jun-13 11:59N 54°20' W 130°17'0 0.0
2019-Jun-13 11:29N 54°20' W 130°17'0 0.0
2019-Jun-13 10:59N 54°20' W 130°17'0 0.0
2019-Jun-13 10:29N 54°20' W 130°17'0 0.0
2019-Jun-13 09:59N 54°20' W 130°17'0 0.0
2019-Jun-13 09:29N 54°20' W 130°17'0 0.0
2019-Jun-13 08:59N 54°20' W 130°17'0 0.0
2019-Jun-13 08:26N 54°20' W 130°17'0 0.0
2019-Jun-13 07:59N 54°20' W 130°17'0 0.0
2019-Jun-13 07:26N 54°20' W 130°17'0 0.0
2019-Jun-13 06:56N 54°20' W 130°17'0 0.0
2019-Jun-13 06:29N 54°20' W 130°17'0 0.0
2019-Jun-13 05:59N 54°20' W 130°17'0 0.0
2019-Jun-13 05:29N 54°20' W 130°17'0 0.0
2019-Jun-13 04:59N 54°20' W 130°17'0 0.0
2019-Jun-13 04:29N 54°20' W 130°17'0 0.0
2019-Jun-13 03:59N 54°20' W 130°17'0 0.0
2019-Jun-13 03:29N 54°20' W 130°17'0 0.0
2019-Jun-13 02:56N 54°20' W 130°17'0 0.0
2019-Jun-13 02:29N 54°20' W 130°17'0 0.0
2019-Jun-13 01:59N 54°20' W 130°17'0 0.0
2019-Jun-13 01:29N 54°20' W 130°17'0 0.0
2019-Jun-13 01:00N 54°20' W 130°17'1 1.3
2019-Jun-13 00:30N 54°20' W 130°17'0 0.2
2019-Jun-13 00:00N 54°20' W 130°17'2 3.2
2019-Jun-12 23:30N 54°19' W 130°19'3 6.3
2019-Jun-12 23:00N 54°16' W 130°22'3 6.1
2019-Jun-12 22:30N 54°13' W 130°21'3 6.7
2019-Jun-12 22:00N 54°10' W 130°22'4 7.2
2019-Jun-12 21:30N 54°08' W 130°26'4 7.6
2019-Jun-12 21:00N 54°05' W 130°31'3 6.8
2019-Jun-12 20:30N 54°03' W 130°35'3 6.6
2019-Jun-12 20:00N 54°03' W 130°40'2 4.2
2019-Jun-12 19:30N 54°03' W 130°44'3 6.9
2019-Jun-12 19:00N 53°60' W 130°46'4 7.7
2019-Jun-12 18:30N 53°56' W 130°47'4 8.3
2019-Jun-12 18:00N 53°52' W 130°48'5 8.0
2019-Jun-12 17:24N 53°49' W 130°41'1 2.4
2019-Jun-12 16:55N 53°49' W 130°39'0 0.0
2019-Jun-12 16:27N 53°49' W 130°39'1 1.8
2019-Jun-12 15:42N 53°48' W 130°41'412.8
2019-Jun-12 15:24N 53°45' W 130°38'512.7
2019-Jun-12 15:00N 53°40' W 130°34'2 2.7
2019-Jun-12 14:18N 53°39' W 130°32'0 0.0
2019-Jun-12 08:00N 53°39' W 130°32'0 0.0
2019-Jun-12 02:41N 53°39' W 130°32'1010.3
2019-Jun-12 01:43N 53°45' W 130°19'2 9.0
2019-Jun-12 01:30N 53°47' W 130°20'511.1
2019-Jun-12 01:00N 53°52' W 130°18'611.8
2019-Jun-12 00:30N 53°57' W 130°12'510.6
2019-Jun-12 00:00N 54°02' W 130°15'510.4
2019-Jun-11 23:30N 54°06' W 130°21'5 9.1
2019-Jun-11 23:00N 54°10' W 130°21'2 4.4
2019-Jun-11 22:30N 54°12' W 130°24'2 3.5
2019-Jun-11 22:01N 54°12' W 130°27'4 7.6
2019-Jun-11 21:30N 54°13' W 130°33'510.6
2019-Jun-11 21:00N 54°15' W 130°42'4 7.1
2019-Jun-11 20:30N 54°16' W 130°48'0 0.0
2019-Jun-11 20:00N 54°16' W 130°48'0 0.1
2019-Jun-11 19:30N 54°17' W 130°47'1 2.7
2019-Jun-11 19:00N 54°16' W 130°45'0 0.2
2019-Jun-11 18:30N 54°16' W 130°45'1 1.2
2019-Jun-11 18:00N 54°16' W 130°45'510.2
2019-Jun-11 17:30N 54°16' W 130°36'3 6.8
2019-Jun-11 17:01N 54°18' W 130°33'0 0.2
2019-Jun-11 16:30N 54°18' W 130°33'0 0.1
2019-Jun-11 16:00N 54°18' W 130°33'1 1.4
2019-Jun-11 15:30N 54°19' W 130°34'4 7.2
2019-Jun-11 15:00N 54°18' W 130°40'2 3.1
2019-Jun-11 14:30N 54°17' W 130°39'0 0.0
2019-Jun-11 14:00N 54°17' W 130°39'0 0.0
2019-Jun-11 13:27N 54°17' W 130°39'0 0.0
2019-Jun-11 13:00N 54°17' W 130°39'0 0.0
2019-Jun-11 12:27N 54°17' W 130°39'0 0.0
2019-Jun-11 12:00N 54°17' W 130°39'0 0.0
2019-Jun-11 11:30N 54°17' W 130°39'0 0.0
2019-Jun-11 11:00N 54°17' W 130°39'0 0.0
2019-Jun-11 10:30N 54°17' W 130°39'0 0.0
2019-Jun-11 10:00N 54°17' W 130°39'0 0.0
2019-Jun-11 09:30N 54°17' W 130°39'0 0.0
2019-Jun-11 08:57N 54°17' W 130°39'0 0.0
2019-Jun-11 08:30N 54°17' W 130°39'0 0.0
2019-Jun-11 08:00N 54°17' W 130°39'0 0.0
2019-Jun-11 07:30N 54°17' W 130°39'0 0.0
2019-Jun-11 07:00N 54°17' W 130°39'0 0.1
2019-Jun-11 06:30N 54°17' W 130°39'0 0.1
2019-Jun-11 06:00N 54°17' W 130°39'0 0.0
2019-Jun-11 05:30N 54°17' W 130°39'0 0.0
2019-Jun-11 05:00N 54°17' W 130°39'0 0.0
2019-Jun-11 04:30N 54°17' W 130°39'0 0.1
2019-Jun-11 04:00N 54°17' W 130°39'0 0.0
2019-Jun-11 03:30N 54°17' W 130°39'0 0.0
2019-Jun-11 03:00N 54°17' W 130°39'0 0.6
2019-Jun-11 02:30N 54°17' W 130°39'4 8.1
2019-Jun-11 02:00N 54°13' W 130°35'612.3
2019-Jun-11 01:30N 54°13' W 130°24'3 6.4
2019-Jun-11 01:00N 54°16' W 130°22'3 5.5
2019-Jun-11 00:30N 54°19' W 130°21'3 5.0
2019-Jun-11 00:00N 54°20' W 130°17'0 0.0
2019-Jun-10 23:30N 54°20' W 130°17'0 0.1
2019-Jun-10 23:00N 54°20' W 130°17'1 1.1
2019-Jun-10 22:28N 54°20' W 130°17'0 0.0
2019-Jun-10 21:58N 54°20' W 130°17'0 0.0
2019-Jun-10 21:25N 54°20' W 130°17'0 0.0
2019-Jun-10 20:58N 54°20' W 130°17'0 0.0
2019-Jun-10 20:25N 54°20' W 130°17'0 0.0
2019-Jun-10 19:55N 54°20' W 130°17'0 0.0
2019-Jun-10 19:28N 54°20' W 130°17'0 0.0
2019-Jun-10 18:58N 54°20' W 130°17'0 0.0
2019-Jun-10 18:22N 54°20' W 130°17'0 0.0
2019-Jun-10 17:52N 54°20' W 130°17'0 0.0
2019-Jun-10 17:28N 54°20' W 130°17'0 0.0
2019-Jun-10 16:58N 54°20' W 130°17'0 0.0
2019-Jun-10 16:28N 54°20' W 130°17'0 0.0
2019-Jun-10 15:58N 54°20' W 130°17'0 0.0
2019-Jun-10 15:28N 54°20' W 130°17'0 0.2
2019-Jun-10 15:00N 54°20' W 130°17'1 1.1
2019-Jun-10 14:28N 54°20' W 130°17'0 0.0
2019-Jun-10 13:58N 54°20' W 130°17'0 0.0
2019-Jun-10 13:28N 54°20' W 130°17'0 0.0
2019-Jun-10 12:58N 54°20' W 130°17'0 0.1
2019-Jun-10 12:25N 54°20' W 130°17'0 0.0
2019-Jun-10 11:58N 54°20' W 130°17'0 0.1
2019-Jun-10 11:28N 54°20' W 130°18'0 0.0
2019-Jun-10 10:58N 54°20' W 130°18'0 0.0
2019-Jun-10 10:28N 54°20' W 130°18'0 0.0
2019-Jun-10 09:58N 54°20' W 130°18'0 0.0
2019-Jun-10 09:28N 54°20' W 130°18'0 0.0
2019-Jun-10 08:58N 54°20' W 130°18'0 0.0
2019-Jun-10 08:28N 54°20' W 130°18'0 0.0
2019-Jun-10 07:58N 54°20' W 130°18'0 0.0
2019-Jun-10 07:28N 54°20' W 130°18'0 0.0
2019-Jun-10 06:58N 54°20' W 130°18'0 0.0
2019-Jun-10 06:28N 54°20' W 130°18'0 0.0
2019-Jun-10 05:55N 54°20' W 130°18'0 0.1
2019-Jun-10 05:28N 54°20' W 130°17'0 0.3
2019-Jun-10 05:00N 54°20' W 130°17'3 6.3
2019-Jun-10 04:30N 54°18' W 130°22'5 9.1
2019-Jun-10 04:00N 54°14' W 130°21'5 9.9
2019-Jun-10 03:30N 54°13' W 130°29'611.3
2019-Jun-10 03:00N 54°14' W 130°39'611.9
2019-Jun-10 02:30N 54°17' W 130°48'611.4
2019-Jun-10 02:00N 54°20' W 130°57'611.6
2019-Jun-10 01:30N 54°19' W 131°07'711.3
2019-Jun-10 00:50N 54°19' W 131°19'  

Dump ship's entire track history